Alamo, Nevada Weather observations

Data are for observation ending at time listed.
 Day   Time    Ave.   Ave.  Ave.  Vector   Max.   Stn.    Total    Solar   Ave.  
  of    of     Air    Rel.  Wind   Wind    Wind   Baro.  Precip.   Rad.    Soil  
Year   Day     Temp.  Hum.  Speed  Dir.    Gust   Pres.                    Temp. 
2014   (PST)    F      %     mph   deg.    mph     mb.     in.     W/m2     F   
------------------------------------------------------------------------------
 202   16:00   93.4    16    3.0   178      8.0   895.3    0.00     622    93.9
 202   16:10   94.5    14    2.6   128      8.6   895.2    0.00     609    93.2
 202   16:20   94.6    15    2.2   174      7.8   895.2    0.00     575    92.4
 202   16:30   94.1    15    2.6   176      8.3   895.1    0.00     539    91.7
 202   16:40   93.6    16    1.8   175      6.0   895.1    0.00     502    91.1
 202   16:50   94.0    15    2.3   161      7.8   895.0    0.00     464    90.4
 202   17:00   93.8    14    1.4   162      5.8   895.1    0.00     426    89.8
 202   17:10   93.3    15    2.7   179      9.4   895.2    0.00     390    89.2
 202   17:20   93.1    15    1.9   164      6.5   895.2    0.00     352    88.6
 202   17:30   93.2    15    2.2   169      7.2   895.2    0.00     316    88.1
 202   17:40   93.0    16    1.8   175      7.2   895.3    0.00     276    87.7
 202   17:50   92.9    14    1.8   164      7.0   895.4    0.00     242    87.3
 202   18:00   92.6    14    2.1   171      5.8   895.4    0.00     209    86.9
 202   18:10   91.9    15    2.3   175     10.3   895.4    0.00     173    86.5
 202   18:20   91.0    15    2.1   182      6.7   895.5    0.00     140    86.1
 202   18:30   90.5    14    1.9   174      6.2   895.4    0.00     101    85.7
 202   18:40   90.4    13    1.4   177      6.5   895.4    0.00      56    85.3
 202   18:50   90.2    13    1.3   168      8.7   895.4    0.00      12    84.9
 202   19:00   90.0    13    1.8   173      6.3   895.5    0.00       7    84.5
 202   19:10   88.8    14    2.4   190      6.2   895.5    0.00       0    84.2
 202   19:20   86.4    16    1.9   183      4.2   895.6    0.00       0    83.8
 202   19:30   85.4    16    1.6   187      3.8   895.6    0.00       0    83.4
 202   19:40   85.5    15    1.6   177      4.8   895.6    0.00       0    83.1
 202   19:50   85.1    16    1.3   179      3.7   895.7    0.00       0    82.8
 202   20:00   83.6    17    1.0   186      3.1   895.9    0.00       0    82.4
 202   20:10   82.3    17    0.3   191      2.1   896.1    0.00       0    82.1
 202   20:20   81.9    17    0.5   200      1.8   896.3    0.00       0    81.8
 202   20:30   81.1    17    0.1   217      0.9   896.5    0.00       0    81.5
 202   20:40   80.3    17    0.2   171      1.1   896.6    0.00       0    81.2
 202   20:50   80.0    18    0.3    46      1.5   896.7    0.00       0    80.9
 202   21:00   79.8    17    0.5    74      2.6   896.8    0.00       0    80.6
 202   21:10   79.9    16    0.6   279      2.7   896.9    0.00       0    80.3
 202   21:20   79.3    17    0.4   286      1.9   896.9    0.00       0    80.0
 202   21:30   78.0    19    0.4   216      2.6   896.9    0.00       0    79.8
 202   21:40   76.9    20    0.2   210      1.3   896.8    0.00       0    79.5
 202   21:50   75.8    22    0.6   153      2.5   896.9    0.00       0    79.3
 202   22:00   75.4    22    0.7   221      2.6   897.1    0.00       0    79.0
 202   22:10   75.1    23    0.3   165      2.1   897.3    0.00       0    78.7
 202   22:20   74.1    24    0.1    74      0.8   897.3    0.00       0    78.5
 202   22:30   72.9    26    0.5    13      1.9   897.8    0.00       0    78.2
 202   22:40   71.7    28    0.5    37      1.7   897.7    0.00       0    78.0
 202   22:50   70.6    29    0.8     8      1.8   897.8    0.00       0    77.7
 202   23:00   70.0    30    0.7   354      1.6   898.4    0.00       0    77.5
 202   23:10   69.3    30    1.0     2      2.3   898.0    0.00       0    77.2
 202   23:20   68.6    30    0.8    20      2.1   897.9    0.00       0    77.0
 202   23:30   68.0    31    1.2    24      3.2   898.8    0.00       0    76.7
 202   23:40   67.9    30    1.4    34      3.1   899.1    0.00       0    76.4
 202   23:50   68.3    29    1.8     1      3.3   899.2    0.00       0    76.2
 203    0:00   68.2    30    1.6   346      2.9   898.9    0.00       0    75.9
 203    0:10   67.6    30    1.7    15      2.7   898.6    0.00       0    75.7
 203    0:20   66.0    34    0.7    13      2.3   898.6    0.00       0    75.5
 203    0:30   65.8    34    0.9   359      1.5   898.7    0.00       0    75.3
 203    0:40   65.4    34    1.4    40      2.4   899.0    0.00       0    75.1
 203    0:50   64.9    35    1.3   314      2.3   898.4    0.00       0    74.8
 203    1:00   64.6    36    0.7   337      1.5   898.3    0.00       0    74.6
 203    1:10   64.1    37    1.0    54      2.0   898.9    0.00       0    74.4
 203    1:20   63.6    39    0.0     6      0.4   898.6    0.00       0    74.3
 203    1:30   62.8    40    1.2    74      3.1   898.5    0.00       0    74.1
 203    1:40   62.7    40    0.6    16      1.2   898.8    0.00       0    73.9
 203    1:50   62.5    40    0.3   284      1.8   899.1    0.00       0    73.7
 203    2:00   61.9    40    0.6    34      2.1   899.4    0.00       0    73.5
 203    2:10   61.8    40    1.0    51      2.1   899.4    0.00       0    73.3
 203    2:20   61.3    42    0.1    19      0.8   900.6    0.00       0    73.1
 203    2:30   60.6    43    0.3   296      1.0   900.8    0.00       0    72.9
 203    2:40   60.6    42    1.1    16      2.1   900.8    0.00       0    72.8
 203    2:50   60.1    45    1.1    29      1.9   899.8    0.00       0    72.6
 203    3:00   59.6    47    0.8   351      1.7   899.9    0.00       0    72.4
 203    3:10   59.2    47    0.4     9      1.3   900.0    0.00       0    72.2
 203    3:20   58.7    49    0.0   343      0.7   899.2    0.00       0    72.1
 203    3:30   58.1    50    0.1    58      1.1   899.2    0.00       0    71.9
 203    3:40   57.7    50    0.0     0      0.0   900.3    0.00       0    71.7
 203    3:50   58.0    48    0.6    13      1.5   900.2    0.00       0    71.5
 203    4:00   58.8    44    1.0    34      2.3   900.4    0.00       0    71.3
 203    4:10   58.7    45    0.7    17      1.8   900.0    0.00       0    71.2
 203    4:20   58.5    48    0.2   329      1.0   899.8    0.00       0    71.0
 203    4:30   58.0    47    0.5    41      1.7   899.6    0.00       0    70.9
 203    4:40   57.7    49    0.0   347      0.6   899.6    0.00       0    70.7
 203    4:50   56.8    51    0.6    31      1.4   900.3    0.00       3    70.6
 203    5:00   56.5    52    0.3   341      1.2   900.7    0.00      12    70.4
 203    5:10   57.0    50    0.3     5      1.0   899.9    0.00      13    70.3
 203    5:20   57.0    50    0.1   352      0.8   899.9    0.00      19    70.2
 203    5:30   58.3    48    0.8    29      1.9   899.7    0.00     103    70.0
 203    5:40   59.7    46    1.7    37      2.9   900.1    0.00     147    69.9
 203    5:50   61.5    39    1.5    22      2.6   900.3    0.00     183    69.8
 203    6:00   64.3    35    1.9    30      3.4   900.6    0.00     220    69.9
 203    6:10   65.9    33    2.2    20      3.9   900.7    0.00     256    70.1
 203    6:20   67.9    29    1.9   360      4.5   900.7    0.00     291    70.3
 203    6:30   70.0    29    1.4    14      3.1   900.8    0.00     262    70.7
 203    6:40   70.3    29    2.2    13      4.7   900.8    0.00      58    71.1
 203    6:50   71.9    28    1.6    14      2.8   900.8    0.00      43    71.7
 203    7:00   73.8    26    1.3   346      3.4   900.7    0.00      73    72.1
 203    7:10   76.1    22    1.9   343      3.6   900.6    0.00     300    72.7
 203    7:20   76.2    22    1.8   350      3.7   900.8    0.00     523    73.2
 203    7:30   75.9    26    1.5    45      2.9   900.8    0.00     430    73.2
 203    7:40   76.6    25    1.8    44      3.0   900.7    0.00     174    73.1
 203    7:50   77.4    21    2.1    26      3.4   900.7    0.00     393    73.1
 203    8:00   78.3    22    2.0    41      3.5   900.6    0.00      86    73.0
 203    8:10   79.6    21    2.1    37      3.1   900.6    0.00      57    72.9
 203    8:20   81.3    18    1.5    19      2.8   900.5    0.00      43    72.8
 203    8:30   83.3    17    1.2    36      2.4   900.3    0.00      40    72.8
 203    8:40   85.0    16    0.9   296      2.2   900.3    0.00      40    72.8
 203    8:50   85.2    17    1.0   186      2.6   900.2    0.00      47    72.7
 203    9:00   84.8    17    1.7   207      3.9   899.9    0.00      62    72.7
 203    9:10   85.4    19    1.6   200      3.4   900.2    0.00      54    72.8
 203    9:20   86.2    20    2.4   201      5.9   900.3    0.00     185    72.8
 203    9:30   86.9    19    2.6   193      5.8   900.1    0.00     130    73.0
 203    9:40   87.5    19    2.3   186      5.4   899.9    0.00      52    73.0
 203    9:50   88.2    17    2.2   183      5.4   899.5    0.00     283    73.2
 203   10:00   88.6    17    2.7   190      7.3   899.5    0.00     178    73.3
 203   10:10   89.1    18    3.1   196      8.6   899.8    0.00     140    73.4
 203   10:20   89.4    17    3.4   182     10.9   899.3    0.00     640    73.7
 203   10:30   90.2    15    1.7   168      7.6   899.3    0.00    1057    73.9
 203   10:40   91.0    15    2.4   178      7.1   899.3    0.00    1078    74.1
 203   10:50   91.4    15    2.5   173      8.7   899.1    0.00    1088    74.7
 203   11:00   92.2    14    2.2   170     11.0   899.1    0.00    1104    75.8
 203   11:10   92.3    14    2.4   173     12.1   898.3    0.00    1115    77.0
 203   11:20   92.8    14    2.5   166      7.6   898.3    0.00    1125    77.7
 203   11:30   93.8    13    1.6   162      6.4   898.2    0.00    1129    78.1
 203   11:40   93.8    14    2.6   175      9.1   898.2    0.00    1137    78.5
 203   11:50   94.5    14    2.9   174      8.8   898.3    0.00    1136    78.7
 203   12:00   94.2    13    3.0   177      8.8   898.3    0.00    1140    79.5
 203   12:10   94.9    12    2.0   168      6.6   898.2    0.00    1141    80.9
 203   12:20   95.4    12    2.7   128      9.4   898.2    0.00    1140    82.7
 203   12:30   95.7    13    2.8   177      8.4   898.1    0.00    1131    84.3
 203   12:40   95.8    12    2.3   144      8.1   898.0    0.00    1126    85.8
 203   12:50   96.2    12    2.9   176      9.9   897.9    0.00    1119    87.1
 203   13:00   96.2    12    2.9   179      8.9   897.8    0.00    1111    88.2
 203   13:10   97.0    11    2.2   164      9.5   897.5    0.00    1103    89.2
 203   13:20   97.5    11    1.8   166      7.5   897.3    0.00    1088    90.1
 203   13:30   98.0    11    2.6   176      8.0   896.9    0.00    1073    91.0
 203   13:40   97.4    10    1.9   172      8.6   896.8    0.00    1056    91.8
 203   13:50   97.4    12    2.9   185      8.6   896.7    0.00    1039    92.5
 203   14:00   97.8    10    2.1   158      7.2   896.7    0.00    1020    93.2
 203   14:10   97.8    10    2.0   152      7.1   896.8    0.00     995    93.8
 203   14:20   98.4    10    2.0   159      7.9   896.5    0.00     971    94.3
 203   14:30   98.3    10    3.6   172     10.4   896.3    0.00     947    94.8
 203   14:40   97.4    10    3.0   177      9.9   896.2    0.00     924    95.1
 203   14:50   97.8    10    3.5   177     12.4   896.1    0.00     897    95.4
 203   15:00   97.8     9    2.1   169      8.4   896.0    0.00     868    95.6
 203   15:10   98.3    10    2.1   168      8.8   895.9    0.00     838    95.8
 203   15:20   98.4    10    1.8   167      5.8   895.9    0.00     806    96.0
 203   15:30   98.5     9    1.8   166      9.5   895.9    0.00     774    96.2
 203   15:40   98.4     9    1.7   176      4.8   895.5    0.00     740    96.1
 203   15:50   97.8    10    2.6   176      8.8   895.3    0.00     706    95.5

Return to Alamo, Nevada graphs page.


Western Regional Climate Center,wrcc@dri.edu